createdAt,value
2018-03-29T00:02:15.835Z,90.20
2018-03-29T00:04:44.037Z,90.20
2018-03-29T00:07:12.140Z,90.20
2018-03-29T00:09:40.353Z,89.90
2018-03-29T00:12:09.243Z,89.40
2018-03-29T00:14:37.404Z,89.20
2018-03-29T00:17:05.607Z,90.00
2018-03-29T00:19:33.720Z,90.10
2018-03-29T00:22:02.648Z,89.60
2018-03-29T00:24:30.809Z,89.60
2018-03-29T00:26:58.910Z,89.50
2018-03-29T00:29:27.020Z,90.00
2018-03-29T00:31:55.271Z,90.10
2018-03-29T00:34:23.467Z,89.30
2018-03-29T00:36:52.364Z,88.40
2018-03-29T00:39:20.521Z,88.30
2018-03-29T00:41:48.704Z,87.80
2018-03-29T00:44:16.862Z,86.70
2018-03-29T00:46:45.078Z,85.60
2018-03-29T00:49:13.215Z,85.50
2018-03-29T00:51:41.456Z,84.50
2018-03-29T00:54:09.658Z,85.40
2018-03-29T00:56:38.569Z,84.00
2018-03-29T00:59:07.466Z,83.50
2018-03-29T01:01:36.356Z,83.80
2018-03-29T01:04:04.475Z,83.70
2018-03-29T01:06:33.345Z,83.50
2018-03-29T01:09:01.442Z,84.10
2018-03-29T01:11:30.361Z,83.10
2018-03-29T01:13:59.212Z,83.00
2018-03-29T01:16:27.622Z,82.80
2018-03-29T01:18:56.409Z,83.10
2018-03-29T01:21:24.568Z,83.00
2018-03-29T01:23:52.784Z,82.80
2018-03-29T01:26:20.904Z,82.70
2018-03-29T01:28:49.788Z,80.50
2018-03-29T01:31:18.040Z,80.40
2018-03-29T01:33:46.188Z,80.60
2018-03-29T01:36:14.284Z,79.50
2018-03-29T01:38:42.532Z,79.60
2018-03-29T01:41:10.642Z,78.60
2018-03-29T01:43:39.540Z,79.90
2018-03-29T01:46:07.660Z,79.90
2018-03-29T01:48:36.045Z,79.40
2018-03-29T01:51:05.001Z,80.50
2018-03-29T01:53:33.159Z,81.00
2018-03-29T01:56:01.323Z,81.00
2018-03-29T01:58:29.466Z,81.40
2018-03-29T02:00:57.560Z,82.00
2018-03-29T02:03:25.744Z,82.40
2018-03-29T02:05:53.872Z,83.20
2018-03-29T02:08:22.130Z,83.40
2018-03-29T02:10:50.256Z,83.20
2018-03-29T02:13:18.402Z,83.20
2018-03-29T02:15:47.326Z,81.00
2018-03-29T02:18:15.512Z,81.00
2018-03-29T02:20:43.643Z,81.00
2018-03-29T02:23:11.784Z,79.90
2018-03-29T02:25:39.911Z,78.80
2018-03-29T02:28:08.175Z,79.10
2018-03-29T02:30:36.338Z,78.70
2018-03-29T02:33:04.520Z,79.40
2018-03-29T02:35:32.657Z,78.70
2018-03-29T02:38:00.779Z,79.00
2018-03-29T02:40:29.717Z,79.30
2018-03-29T02:42:57.818Z,79.30
2018-03-29T02:45:26.021Z,80.10
2018-03-29T02:47:54.232Z,80.40
2018-03-29T02:50:22.396Z,80.30
2018-03-29T02:52:50.857Z,80.60
2018-03-29T02:55:19.039Z,79.20
2018-03-29T02:57:47.176Z,79.80
2018-03-29T03:00:16.099Z,80.50
2018-03-29T03:02:44.978Z,80.60
2018-03-29T03:05:13.104Z,80.50
2018-03-29T03:07:41.272Z,80.30
2018-03-29T03:10:09.438Z,80.30
2018-03-29T03:12:37.561Z,81.20
2018-03-29T03:15:05.675Z,81.50
2018-03-29T03:17:33.812Z,82.20
2018-03-29T03:20:02.809Z,82.00
2018-03-29T03:22:30.972Z,81.90
2018-03-29T03:24:59.088Z,81.60
2018-03-29T03:27:27.981Z,82.70
2018-03-29T03:29:56.119Z,82.70
2018-03-29T03:32:24.362Z,83.00
2018-03-29T03:34:52.548Z,83.10
2018-03-29T03:37:21.423Z,83.70
2018-03-29T03:39:49.564Z,83.70
2018-03-29T03:42:18.061Z,83.70
2018-03-29T03:44:46.183Z,84.30
2018-03-29T03:47:14.349Z,84.70
2018-03-29T03:49:42.529Z,85.10
2018-03-29T03:52:10.657Z,85.30
2018-03-29T03:54:38.783Z,86.10
2018-03-29T03:57:07.032Z,86.40
2018-03-29T03:59:35.200Z,86.60
2018-03-29T04:02:03.368Z,86.70
2018-03-29T04:04:31.467Z,86.80
2018-03-29T04:06:59.681Z,87.70
2018-03-29T04:09:27.801Z,88.30
2018-03-29T04:11:56.051Z,88.60
2018-03-29T04:14:24.220Z,88.80
2018-03-29T04:16:52.366Z,88.80
2018-03-29T04:19:20.464Z,89.50
2018-03-29T04:21:48.657Z,89.50
2018-03-29T04:24:16.812Z,89.40
2018-03-29T04:26:44.944Z,89.80
2018-03-29T04:29:13.062Z,88.90
2018-03-29T04:31:41.970Z,87.80
2018-03-29T04:34:10.848Z,87.80
2018-03-29T04:36:38.969Z,87.70
2018-03-29T04:39:09.978Z,87.30
2018-03-29T04:41:38.152Z,87.60
2018-03-29T04:44:06.319Z,87.40
2018-03-29T04:46:34.482Z,88.00
2018-03-29T04:49:03.373Z,87.20
2018-03-29T04:51:31.498Z,87.20
2018-03-29T04:53:59.630Z,86.90
2018-03-29T04:56:27.778Z,86.10
2018-03-29T04:58:55.965Z,86.60
2018-03-29T05:01:24.069Z,86.50
2018-03-29T05:03:52.226Z,86.80
2018-03-29T05:06:20.454Z,86.80
2018-03-29T05:08:48.655Z,87.40
2018-03-29T05:11:16.790Z,87.60
2018-03-29T05:13:44.967Z,88.30
2018-03-29T05:16:13.212Z,88.50
2018-03-29T05:18:41.382Z,89.70
2018-03-29T05:21:09.522Z,90.60
2018-03-29T05:23:37.668Z,90.60
2018-03-29T05:26:06.719Z,90.80
2018-03-29T05:28:34.932Z,91.00
2018-03-29T05:31:03.117Z,91.30
2018-03-29T05:33:31.221Z,91.10
2018-03-29T05:35:59.405Z,90.50
2018-03-29T05:38:27.500Z,90.10
2018-03-29T05:40:55.628Z,90.10
2018-03-29T05:43:23.731Z,89.90
2018-03-29T05:45:51.929Z,90.10
2018-03-29T05:48:20.047Z,90.00
2018-03-29T05:50:48.175Z,89.90
2018-03-29T05:53:16.318Z,89.90
2018-03-29T05:55:45.315Z,90.30
2018-03-29T05:58:13.442Z,89.80
2018-03-29T06:00:41.568Z,85.60
2018-03-29T06:03:09.739Z,82.10
2018-03-29T06:05:38.641Z,79.20
2018-03-29T06:08:06.778Z,79.10
2018-03-29T06:10:35.659Z,74.00
2018-03-29T06:13:03.850Z,74.00
2018-03-29T06:15:32.831Z,73.40
2018-03-29T06:18:00.994Z,73.90
2018-03-29T06:20:29.141Z,73.00
2018-03-29T06:22:57.313Z,72.00
2018-03-29T06:25:25.432Z,70.70
2018-03-29T06:27:53.672Z,72.30
2018-03-29T06:30:21.784Z,69.20
2018-03-29T06:32:50.708Z,65.30
2018-03-29T06:35:19.557Z,63.10
2018-03-29T06:37:47.794Z,63.00
2018-03-29T06:40:16.009Z,64.10
2018-03-29T06:42:44.153Z,66.40
2018-03-29T06:45:12.234Z,68.10
2018-03-29T06:47:40.391Z,68.70
2018-03-29T06:50:08.486Z,67.80
2018-03-29T06:52:36.637Z,68.00
2018-03-29T06:55:04.747Z,67.10
2018-03-29T06:57:32.847Z,65.40
2018-03-29T07:00:01.044Z,63.80
2018-03-29T07:02:29.146Z,58.50
2018-03-29T07:04:58.110Z,54.00
2018-03-29T07:07:26.320Z,54.00
2018-03-29T07:09:54.501Z,53.90
2018-03-29T07:12:22.888Z,52.70
2018-03-29T07:14:51.027Z,50.40
2018-03-29T07:17:19.232Z,49.30
2018-03-29T07:19:47.368Z,47.80
2018-03-29T07:22:16.256Z,44.30
2018-03-29T07:24:44.485Z,44.20
2018-03-29T07:27:12.576Z,46.60
2018-03-29T07:29:40.704Z,48.50
2018-03-29T07:32:08.916Z,46.90
2018-03-29T07:34:37.081Z,46.60
2018-03-29T07:37:05.170Z,44.60
2018-03-29T07:39:33.397Z,43.20
2018-03-29T07:42:02.327Z,48.30
2018-03-29T07:44:30.450Z,48.30
2018-03-29T07:46:58.629Z,46.70
2018-03-29T07:49:26.863Z,44.60
2018-03-29T07:51:55.847Z,44.00
2018-03-29T07:54:23.957Z,44.00
2018-03-29T07:56:52.141Z,45.80
2018-03-29T07:59:20.303Z,45.60
2018-03-29T08:01:48.427Z,43.90
2018-03-29T08:04:16.585Z,42.90
2018-03-29T08:06:45.529Z,40.80
2018-03-29T08:09:13.738Z,40.80
2018-03-29T08:11:41.896Z,39.40
2018-03-29T08:14:10.023Z,38.30
2018-03-29T08:16:38.177Z,38.90
2018-03-29T08:19:06.346Z,38.40
2018-03-29T08:21:34.610Z,41.00
2018-03-29T08:24:03.490Z,37.60
2018-03-29T08:26:31.582Z,37.60
2018-03-29T08:28:59.696Z,38.20
2018-03-29T08:31:27.844Z,39.00
2018-03-29T08:33:56.100Z,37.40
2018-03-29T08:36:24.285Z,37.40
2018-03-29T08:38:52.412Z,40.20
2018-03-29T08:41:21.340Z,43.30
2018-03-29T08:43:49.508Z,42.80
2018-03-29T08:46:18.381Z,44.80
2018-03-29T08:48:46.511Z,44.80
2018-03-29T08:51:15.394Z,46.90
2018-03-29T08:53:43.651Z,46.80
2018-03-29T08:56:11.771Z,46.40
2018-03-29T08:58:39.908Z,46.10
2018-03-29T09:01:08.104Z,43.60
2018-03-29T09:03:36.244Z,41.60
2018-03-29T09:06:05.147Z,41.40
2018-03-29T09:08:34.014Z,42.30
2018-03-29T09:11:02.144Z,42.30
2018-03-29T09:13:30.258Z,39.50
2018-03-29T09:15:58.440Z,41.20
2018-03-29T09:18:26.598Z,42.00
2018-03-29T09:20:55.509Z,40.50
2018-03-29T09:23:23.635Z,40.40
2018-03-29T09:25:51.733Z,37.90
2018-03-29T09:28:19.875Z,34.90
2018-03-29T09:30:48.020Z,31.70
2018-03-29T09:33:16.972Z,31.10
2018-03-29T09:35:45.172Z,30.30
2018-03-29T09:38:13.265Z,33.10
2018-03-29T09:40:41.361Z,34.20
2018-03-29T09:43:09.485Z,34.10
2018-03-29T09:45:37.785Z,34.10
2018-03-29T09:48:05.928Z,32.00
2018-03-29T09:50:34.140Z,33.50
2018-03-29T09:53:03.114Z,32.60
2018-03-29T09:55:31.331Z,32.50
2018-03-29T09:57:59.432Z,33.50
2018-03-29T10:00:39.323Z,33.50
2018-03-29T10:03:09.308Z,32.90
2018-03-29T10:05:38.311Z,33.70
2018-03-29T10:08:07.227Z,33.10
2018-03-29T10:10:35.394Z,33.10
2018-03-29T10:13:03.564Z,31.00
2018-03-29T10:15:32.673Z,32.00
2018-03-29T10:18:00.773Z,32.40
2018-03-29T10:20:28.932Z,32.00
2018-03-29T10:22:57.065Z,30.90
2018-03-29T10:25:25.796Z,32.50
2018-03-29T10:27:53.891Z,29.10
2018-03-29T10:30:22.075Z,31.20
2018-03-29T10:32:50.285Z,32.90
2018-03-29T10:35:18.456Z,30.50
2018-03-29T10:37:46.572Z,31.80
2018-03-29T10:40:14.693Z,33.30
2018-03-29T10:42:42.799Z,33.80
2018-03-29T10:45:11.017Z,34.90
2018-03-29T10:47:39.146Z,34.40
2018-03-29T10:50:07.327Z,32.00
2018-03-29T10:52:36.165Z,30.80
2018-03-29T10:55:04.389Z,30.80
2018-03-29T10:57:32.494Z,30.00
2018-03-29T11:00:01.388Z,31.40
2018-03-29T11:02:30.277Z,31.70
2018-03-29T11:04:58.368Z,31.60
2018-03-29T11:07:26.620Z,32.80
2018-03-29T11:09:54.797Z,35.30
2018-03-29T11:12:22.986Z,37.90
2018-03-29T11:14:52.052Z,38.50
2018-03-29T11:17:20.963Z,37.50
2018-03-29T11:19:49.065Z,37.40
2018-03-29T11:22:17.225Z,39.80
2018-03-29T11:24:45.386Z,36.60
2018-03-29T11:27:13.555Z,35.00
2018-03-29T11:29:41.752Z,35.00
2018-03-29T11:32:09.919Z,36.60
2018-03-29T11:34:38.054Z,36.40
2018-03-29T11:37:06.976Z,35.80
2018-03-29T11:39:35.216Z,35.10
2018-03-29T11:42:03.426Z,34.20
2018-03-29T11:44:32.336Z,36.40
2018-03-29T11:47:01.293Z,36.40
2018-03-29T11:49:29.407Z,38.50
2018-03-29T11:51:57.535Z,39.50
2018-03-29T11:54:25.734Z,40.70
2018-03-29T11:56:53.837Z,37.30
2018-03-29T11:59:22.048Z,36.10
2018-03-29T12:01:50.185Z,35.90
2018-03-29T12:04:18.318Z,35.50
2018-03-29T12:06:46.472Z,34.60
2018-03-29T12:09:14.674Z,36.10
2018-03-29T12:11:42.804Z,38.20
2018-03-29T12:14:11.780Z,37.80
2018-03-29T12:16:39.880Z,37.80
2018-03-29T12:19:08.956Z,41.10
2018-03-29T12:21:37.064Z,40.40
2018-03-29T12:24:05.335Z,40.00
2018-03-29T12:26:33.527Z,40.50
2018-03-29T12:29:01.621Z,38.70
2018-03-29T12:31:29.885Z,40.40
2018-03-29T12:33:58.042Z,41.30
2018-03-29T12:36:26.179Z,43.50
2018-03-29T12:38:54.329Z,41.60
2018-03-29T12:41:22.597Z,42.30
2018-03-29T12:43:51.473Z,42.30
2018-03-29T12:46:20.441Z,41.80
2018-03-29T12:48:48.657Z,41.80
2018-03-29T12:51:16.822Z,42.50
2018-03-29T12:53:45.067Z,43.40
2018-03-29T12:56:21.048Z,41.30
2018-03-29T12:58:50.080Z,42.30
2018-03-29T13:01:18.202Z,41.90
2018-03-29T13:03:46.343Z,44.00
2018-03-29T13:06:14.536Z,44.40
2018-03-29T13:08:42.667Z,45.40
2018-03-29T13:11:10.812Z,44.40
2018-03-29T13:13:38.942Z,44.60
2018-03-29T13:16:07.863Z,46.10
2018-03-29T13:18:35.990Z,46.10
2018-03-29T13:21:04.821Z,44.60
2018-03-29T13:23:32.977Z,44.90
2018-03-29T13:26:01.145Z,46.10
2018-03-29T13:28:29.346Z,43.50
2018-03-29T13:30:57.467Z,44.20
2018-03-29T13:33:26.383Z,43.50
2018-03-29T13:35:55.319Z,40.90
2018-03-29T13:38:23.478Z,40.80
2018-03-29T13:40:52.347Z,40.90
2018-03-29T13:43:20.636Z,40.80
2018-03-29T13:45:48.839Z,42.50
2018-03-29T13:48:16.937Z,42.30
2018-03-29T13:50:45.843Z,41.30
2018-03-29T13:53:13.988Z,41.30
2018-03-29T13:55:42.195Z,42.40
2018-03-29T13:58:10.358Z,42.10
2018-03-29T14:00:38.480Z,42.60
2018-03-29T14:03:07.342Z,41.10
2018-03-29T14:05:35.513Z,41.10
2018-03-29T14:08:03.691Z,40.90
2018-03-29T14:10:31.875Z,40.00
2018-03-29T14:13:00.781Z,38.70
2018-03-29T14:15:28.911Z,38.60
2018-03-29T14:17:57.013Z,38.30
2018-03-29T14:20:25.947Z,39.70
2018-03-29T14:22:54.119Z,39.70
2018-03-29T14:25:22.242Z,41.20
2018-03-29T14:27:50.384Z,42.50
2018-03-29T14:30:18.516Z,42.90
2018-03-29T14:32:46.687Z,41.90
2018-03-29T14:35:14.854Z,41.30
2018-03-29T14:37:44.070Z,41.20
2018-03-29T14:40:12.204Z,40.80
2018-03-29T14:42:40.317Z,41.30
2018-03-29T14:45:09.160Z,41.40
2018-03-29T14:47:37.264Z,41.30
2018-03-29T14:50:05.397Z,40.60
2018-03-29T14:52:33.588Z,40.60
2018-03-29T14:55:01.780Z,40.80
2018-03-29T14:57:29.864Z,41.60
2018-03-29T14:59:58.038Z,43.20
2018-03-29T15:02:26.174Z,43.30
2018-03-29T15:04:54.360Z,43.90
2018-03-29T15:07:22.471Z,43.70
2018-03-29T15:09:50.645Z,44.20
2018-03-29T15:12:18.777Z,43.90
2018-03-29T15:14:46.932Z,45.00
2018-03-29T15:17:15.046Z,45.40
2018-03-29T15:19:43.236Z,46.10
2018-03-29T15:22:12.072Z,45.90
2018-03-29T15:24:40.253Z,45.80
2018-03-29T15:27:08.400Z,47.10
2018-03-29T15:29:36.541Z,46.20
2018-03-29T15:32:04.709Z,46.40
2018-03-29T15:34:32.885Z,44.90
2018-03-29T15:37:01.033Z,45.10
2018-03-29T15:39:29.228Z,43.90
2018-03-29T15:41:58.125Z,45.30
2018-03-29T15:44:27.059Z,46.20
2018-03-29T15:46:55.205Z,46.10
2018-03-29T15:49:24.140Z,48.80
2018-03-29T15:51:52.301Z,48.70
2018-03-29T15:54:20.422Z,47.20
2018-03-29T15:56:48.536Z,46.90
2018-03-29T15:59:16.653Z,46.90
2018-03-29T16:01:45.608Z,48.00
2018-03-29T16:04:13.847Z,48.00
2018-03-29T16:06:41.966Z,48.20
2018-03-29T16:09:10.165Z,48.10
2018-03-29T16:11:38.247Z,49.20
2018-03-29T16:14:06.394Z,49.50
2018-03-29T16:16:35.280Z,50.70
2018-03-29T16:19:03.388Z,50.60
2018-03-29T16:21:32.300Z,51.00
2018-03-29T16:24:01.162Z,50.70
2018-03-29T16:26:29.311Z,50.60
2018-03-29T16:28:57.481Z,50.10
2018-03-29T16:31:25.608Z,50.80
2018-03-29T16:33:53.743Z,50.60
2018-03-29T16:36:22.625Z,51.20
2018-03-29T16:38:50.749Z,51.10
2018-03-29T16:41:18.869Z,51.50
2018-03-29T16:43:47.036Z,52.30
2018-03-29T16:46:15.157Z,53.30
2018-03-29T16:48:43.551Z,53.80
2018-03-29T16:51:11.675Z,53.20
2018-03-29T16:53:39.791Z,52.30
2018-03-29T16:56:07.967Z,53.00
2018-03-29T16:58:36.122Z,53.10
2018-03-29T17:01:05.031Z,54.30
2018-03-29T17:03:33.176Z,54.20
2018-03-29T17:06:01.337Z,54.30
2018-03-29T17:08:29.464Z,55.00
2018-03-29T17:10:57.565Z,54.80
2018-03-29T17:13:25.743Z,55.70
2018-03-29T17:15:54.693Z,55.40
2018-03-29T17:18:22.816Z,55.40
2018-03-29T17:20:50.936Z,55.90
2018-03-29T17:23:19.135Z,55.70
2018-03-29T17:25:47.209Z,55.70
2018-03-29T17:28:15.332Z,55.80
2018-03-29T17:30:43.560Z,56.40
2018-03-29T17:33:11.633Z,57.00
2018-03-29T17:35:39.951Z,58.00
2018-03-29T17:38:08.851Z,59.30
2018-03-29T17:40:37.713Z,60.10
2018-03-29T17:43:05.849Z,60.00
2018-03-29T17:45:33.979Z,60.80
2018-03-29T17:48:02.077Z,61.70
2018-03-29T17:50:30.198Z,63.40
2018-03-29T17:52:58.326Z,64.60
2018-03-29T17:55:26.444Z,64.10
2018-03-29T17:57:55.339Z,65.50
2018-03-29T18:00:23.534Z,65.10
2018-03-29T18:02:51.816Z,65.70
2018-03-29T18:05:19.911Z,66.20
2018-03-29T18:07:48.054Z,66.90
2018-03-29T18:10:16.227Z,68.40
2018-03-29T18:12:44.328Z,68.70
2018-03-29T18:15:12.483Z,68.90
2018-03-29T18:17:40.608Z,69.40
2018-03-29T18:20:08.811Z,70.30
2018-03-29T18:22:37.215Z,71.40
2018-03-29T18:25:05.381Z,71.80
2018-03-29T18:27:33.485Z,72.40
2018-03-29T18:30:01.659Z,73.20
2018-03-29T18:32:29.836Z,74.30
2018-03-29T18:34:57.954Z,74.50
2018-03-29T18:37:26.872Z,81.00
2018-03-29T18:39:55.763Z,79.30
2018-03-29T18:42:24.636Z,78.30
2018-03-29T18:44:52.967Z,78.10
2018-03-29T18:47:21.860Z,79.80
2018-03-29T18:49:50.750Z,81.40
2018-03-29T18:52:19.652Z,83.30
2018-03-29T18:54:49.328Z,83.80
2018-03-29T18:57:17.417Z,83.80
2018-03-29T18:59:45.555Z,83.70
2018-03-29T19:02:13.685Z,83.70
2018-03-29T19:04:41.852Z,83.70
2018-03-29T19:07:10.724Z,84.00
2018-03-29T19:09:39.620Z,85.30
2018-03-29T19:12:07.776Z,84.50
2018-03-29T19:14:35.920Z,85.10
2018-03-29T19:17:04.789Z,86.80
2018-03-29T19:19:33.694Z,87.10
2018-03-29T19:22:01.821Z,87.00
2018-03-29T19:24:29.943Z,87.10
2018-03-29T19:26:58.064Z,87.50
2018-03-29T19:29:27.003Z,88.10
2018-03-29T19:31:55.186Z,88.00
2018-03-29T19:34:23.300Z,89.20
2018-03-29T19:36:51.430Z,89.50
2018-03-29T19:39:20.311Z,89.30
2018-03-29T19:41:48.516Z,89.20
2018-03-29T19:44:16.674Z,89.90
2018-03-29T19:46:44.839Z,89.60
2018-03-29T19:49:13.012Z,90.30
2018-03-29T19:51:41.162Z,90.30
2018-03-29T19:54:09.331Z,90.20
2018-03-29T19:56:37.481Z,90.30
2018-03-29T19:59:05.621Z,90.20
2018-03-29T20:01:33.774Z,90.20
2018-03-29T20:04:01.915Z,90.40
2018-03-29T20:06:30.797Z,90.80
2018-03-29T20:08:59.671Z,91.10
2018-03-29T20:11:27.773Z,91.10
2018-03-29T20:13:55.941Z,91.10
2018-03-29T20:16:24.089Z,91.20
2018-03-29T20:18:52.259Z,91.60
2018-03-29T20:21:21.140Z,91.30
2018-03-29T20:23:49.272Z,91.30
2018-03-29T20:26:17.427Z,91.40
2018-03-29T20:28:46.598Z,91.80
2018-03-29T20:31:14.731Z,91.70
2018-03-29T20:33:42.855Z,91.70
2018-03-29T20:36:10.995Z,91.10
2018-03-29T20:38:39.918Z,90.30
2018-03-29T20:41:08.157Z,90.30
2018-03-29T20:43:36.332Z,90.60
2018-03-29T20:46:04.507Z,90.00
2018-03-29T20:48:32.586Z,89.50
2018-03-29T20:51:00.776Z,88.60
2018-03-29T20:53:28.932Z,88.50
2018-03-29T20:55:57.069Z,88.80
2018-03-29T20:58:25.152Z,89.50
2018-03-29T21:00:53.404Z,90.10
2018-03-29T21:03:21.553Z,90.20
2018-03-29T21:05:49.718Z,90.50
2018-03-29T21:08:17.952Z,90.70
2018-03-29T21:10:46.047Z,90.90
2018-03-29T21:13:14.169Z,91.00
2018-03-29T21:15:42.403Z,91.30
2018-03-29T21:18:11.302Z,91.60
2018-03-29T21:20:40.238Z,91.70
2018-03-29T21:23:08.392Z,91.60
2018-03-29T21:25:36.496Z,91.80
2018-03-29T21:28:04.668Z,92.10
2018-03-29T21:30:32.909Z,92.20
2018-03-29T21:33:01.085Z,92.40
2018-03-29T21:35:29.278Z,92.90
2018-03-29T21:37:57.436Z,93.10
2018-03-29T21:40:25.549Z,93.20
2018-03-29T21:42:53.679Z,93.20
2018-03-29T21:45:22.549Z,93.40
2018-03-29T21:47:50.713Z,93.40
2018-03-29T21:50:18.855Z,93.60
2018-03-29T21:52:47.746Z,93.50
2018-03-29T21:55:16.714Z,94.00
2018-03-29T21:57:44.972Z,93.60
2018-03-29T22:00:13.872Z,93.80
2018-03-29T22:02:42.056Z,93.80
2018-03-29T22:05:10.267Z,93.90
2018-03-29T22:07:38.360Z,94.00
2018-03-29T22:10:06.582Z,94.10
2018-03-29T22:12:34.678Z,94.20
2018-03-29T22:15:03.571Z,94.60
2018-03-29T22:17:32.552Z,94.70
2018-03-29T22:20:00.720Z,94.70
2018-03-29T22:22:28.890Z,94.80
2018-03-29T22:24:57.066Z,95.00
2018-03-29T22:27:25.229Z,95.00
2018-03-29T22:29:53.352Z,95.00
2018-03-29T22:32:21.499Z,95.00
2018-03-29T22:34:49.699Z,94.90
2018-03-29T22:37:17.840Z,94.80
2018-03-29T22:39:45.992Z,95.00
2018-03-29T22:42:14.186Z,95.00
2018-03-29T22:44:42.369Z,95.00
2018-03-29T22:47:10.480Z,94.90
2018-03-29T22:49:38.620Z,95.20
2018-03-29T22:52:06.782Z,95.10
2018-03-29T22:54:35.682Z,95.10
2018-03-29T22:57:03.882Z,95.10
2018-03-29T22:59:31.993Z,95.10
2018-03-29T23:02:00.173Z,95.00
2018-03-29T23:04:29.119Z,95.00
2018-03-29T23:06:57.302Z,95.00
2018-03-29T23:09:25.501Z,95.00
2018-03-29T23:11:53.637Z,95.10
2018-03-29T23:14:21.760Z,95.10
2018-03-29T23:16:49.952Z,95.10
2018-03-29T23:19:18.060Z,95.00
2018-03-29T23:21:46.194Z,95.00
2018-03-29T23:24:14.343Z,95.00
2018-03-29T23:26:43.236Z,95.00
2018-03-29T23:29:12.856Z,94.70
2018-03-29T23:31:40.999Z,94.70
2018-03-29T23:34:09.148Z,94.60
2018-03-29T23:36:38.016Z,94.90
2018-03-29T23:39:06.168Z,94.90
2018-03-29T23:41:34.367Z,94.90
2018-03-29T23:44:02.640Z,95.10
2018-03-29T23:46:30.785Z,95.30
2018-03-29T23:48:59.746Z,95.40
2018-03-29T23:51:28.227Z,95.30
2018-03-29T23:53:56.317Z,95.50
2018-03-29T23:56:24.519Z,95.40
2018-03-29T23:58:52.691Z,95.30
